Time;durP1;ratioP1;P1;durP2;ratioP2;P2;SDS_P1;SDS_P2;PMS_P1;PMS_P2;Temp;Humidity;BMP_temperature;BMP_pressure;BME280_temperature;BME280_humidity;BME280_pressure;Samples;Min_cycle;Max_cycle;Signal;HPM_P1;HPM_P2
2021/04/01 00:00:03;;;;;;;155.25;76.07;;;7.90;99.90;;;;;;5012902;28;20018;-77
2021/04/01 00:02:29;;;;;;;163.25;76.45;;;7.90;99.90;;;;;;5011033;28;20553;-77
2021/04/01 00:04:55;;;;;;;172.80;80.28;;;7.80;99.90;;;;;;5009170;28;20030;-77
2021/04/01 00:07:22;;;;;;;159.45;76.95;;;7.80;99.90;;;;;;5009149;28;20042;-77
2021/04/01 00:09:48;;;;;;;162.68;77.85;;;7.70;99.90;;;;;;5010140;28;20030;-77
2021/04/01 00:12:14;;;;;;;157.48;76.20;;;7.70;99.90;;;;;;5010093;28;20590;-77
2021/04/01 00:14:40;;;;;;;164.02;77.63;;;7.80;99.90;;;;;;5009373;28;20364;-77
2021/04/01 00:17:08;;;;;;;148.40;71.63;;;7.80;99.90;;;;;;5011004;28;20105;-77
2021/04/01 00:19:33;;;;;;;137.13;70.63;;;7.80;99.90;;;;;;5011292;28;20537;-77
2021/04/01 00:21:59;;;;;;;135.07;66.15;;;7.90;99.90;;;;;;5011404;28;20029;-77
2021/04/01 00:24:25;;;;;;;142.57;68.32;;;7.90;99.90;;;;;;5008307;28;20053;-77
2021/04/01 00:26:50;;;;;;;133.25;64.35;;;7.90;99.90;;;;;;5010404;28;20026;-77
2021/04/01 00:29:16;;;;;;;135.88;63.88;;;7.80;99.90;;;;;;5010572;28;20042;-77
2021/04/01 00:31:42;;;;;;;137.10;64.43;;;7.80;99.90;;;;;;5010467;28;20029;-77
2021/04/01 00:34:07;;;;;;;139.05;64.78;;;7.80;99.90;;;;;;5009924;28;20049;-77
2021/04/01 00:36:33;;;;;;;140.90;71.78;;;7.80;99.90;;;;;;5009243;28;20022;-77
2021/04/01 00:38:58;;;;;;;143.68;70.03;;;7.70;99.90;;;;;;5010171;28;20035;-77
2021/04/01 00:41:24;;;;;;;167.55;78.03;;;7.70;99.90;;;;;;5010953;28;20037;-76
2021/04/01 00:43:49;;;;;;;158.45;73.97;;;7.70;99.90;;;;;;5009833;28;20030;-77
2021/04/01 00:46:15;;;;;;;152.63;73.28;;;7.70;99.90;;;;;;5010382;28;20033;-77
2021/04/01 00:48:40;;;;;;;144.70;69.10;;;7.60;99.90;;;;;;5009768;28;20044;-77
2021/04/01 00:51:06;;;;;;;167.43;76.85;;;7.60;99.90;;;;;;5008846;28;20117;-77
2021/04/01 00:53:32;;;;;;;175.45;85.38;;;7.60;99.90;;;;;;5010421;28;20026;-77
2021/04/01 00:55:58;;;;;;;168.00;81.35;;;7.50;99.90;;;;;;5007312;28;20486;-77
2021/04/01 00:58:24;;;;;;;172.05;79.30;;;7.60;99.90;;;;;;5009170;28;20038;-77
2021/04/01 01:01:00;;;;;;;165.32;75.22;;;7.50;99.90;;;;;;5008873;28;20371;-77
2021/04/01 01:03:26;;;;;;;177.80;81.47;;;7.50;99.90;;;;;;5008654;28;20030;-77
2021/04/01 01:05:51;;;;;;;168.05;78.82;;;7.50;99.90;;;;;;5009049;28;20030;-77
2021/04/01 01:08:17;;;;;;;179.77;81.97;;;7.50;99.90;;;;;;5009662;28;20405;-77
2021/04/01 01:10:43;;;;;;;185.75;87.05;;;7.60;99.90;;;;;;5010040;28;20251;-77
2021/04/01 01:13:08;;;;;;;180.07;87.13;;;7.60;99.90;;;;;;5007268;28;20888;-76
2021/04/01 01:15:34;;;;;;;188.23;84.13;;;7.70;99.90;;;;;;5009078;28;20490;-77
2021/04/01 01:17:59;;;;;;;180.77;86.80;;;7.70;99.90;;;;;;5009283;28;20186;-77
2021/04/01 01:20:27;;;;;;;176.20;86.43;;;7.80;99.90;;;;;;5008305;28;20129;-77
2021/04/01 01:22:53;;;;;;;178.52;85.13;;;7.70;99.90;;;;;;5009779;28;20026;-77
2021/04/01 01:25:21;;;;;;;176.35;83.22;;;7.60;99.90;;;;;;5009066;28;21391;-77
2021/04/01 01:27:47;;;;;;;184.80;83.60;;;7.60;99.90;;;;;;5007999;28;20036;-76
2021/04/01 01:30:16;;;;;;;163.70;81.05;;;7.50;99.90;;;;;;5008247;28;20033;-77
2021/04/01 01:32:45;;;;;;;178.85;86.18;;;7.50;99.90;;;;;;5008069;28;20026;-77
2021/04/01 01:35:21;;;;;;;181.93;84.22;;;7.40;99.90;;;;;;5007374;28;20049;-77
2021/04/01 01:37:55;;;;;;;180.00;87.75;;;7.40;99.90;;;;;;5008952;28;20397;-77
2021/04/01 01:40:26;;;;;;;182.02;85.53;;;7.40;99.90;;;;;;5009258;28;20068;-77
2021/04/01 01:42:53;;;;;;;187.98;86.38;;;7.30;99.90;;;;;;5007753;28;20034;-77
2021/04/01 01:45:20;;;;;;;194.55;87.10;;;7.40;99.90;;;;;;5007476;28;20402;-77
2021/04/01 01:47:46;;;;;;;201.48;87.90;;;7.30;99.90;;;;;;5008661;28;20068;-77
2021/04/01 01:50:14;;;;;;;191.07;88.35;;;7.40;99.90;;;;;;5009236;28;20107;-77
2021/04/01 01:52:40;;;;;;;193.50;88.57;;;7.40;99.90;;;;;;5009298;28;20041;-77
2021/04/01 01:55:07;;;;;;;190.55;85.85;;;7.50;99.90;;;;;;5007048;28;20084;-76
2021/04/01 01:57:37;;;;;;;185.70;86.43;;;7.50;99.90;;;;;;5008412;28;20034;-77
2021/04/01 02:00:16;;;;;;;196.93;88.40;;;7.60;99.90;;;;;;5008273;28;20030;-77
2021/04/01 02:02:56;;;;;;;192.88;87.68;;;7.60;99.90;;;;;;5008808;28;20036;-77
2021/04/01 02:05:23;;;;;;;192.85;87.00;;;7.60;99.90;;;;;;5008328;28;20028;-76
2021/04/01 02:07:49;;;;;;;202.23;92.15;;;7.60;99.90;;;;;;5008341;28;20117;-77
2021/04/01 02:10:21;;;;;;;216.57;94.30;;;7.60;99.90;;;;;;5008998;28;20101;-77
2021/04/01 02:12:46;;;;;;;193.25;90.22;;;7.60;99.90;;;;;;5007448;28;20490;-77
2021/04/01 02:15:17;;;;;;;202.73;90.53;;;7.60;99.90;;;;;;5008205;28;20029;-77
2021/04/01 02:17:43;;;;;;;212.02;93.35;;;7.70;99.90;;;;;;5008299;28;20510;-76
2021/04/01 02:20:10;;;;;;;207.77;95.22;;;7.70;99.90;;;;;;5010480;28;20060;-76
2021/04/01 02:22:36;;;;;;;206.55;92.75;;;7.70;99.90;;;;;;5010800;28;20040;-77
2021/04/01 02:25:04;;;;;;;204.15;92.60;;;7.70;99.90;;;;;;5011525;28;20022;-77
2021/04/01 02:27:29;;;;;;;212.15;96.93;;;7.70;99.90;;;;;;5011916;28;20041;-77
2021/04/01 02:29:55;;;;;;;224.82;98.95;;;7.70;99.90;;;;;;5011956;28;20494;-77
2021/04/01 02:32:20;;;;;;;217.88;96.90;;;7.70;99.90;;;;;;5011833;28;20037;-77
2021/04/01 02:34:47;;;;;;;220.02;99.45;;;7.70;99.90;;;;;;5010610;28;20100;-76
2021/04/01 02:37:13;;;;;;;217.73;98.30;;;7.70;99.90;;;;;;5010336;28;20096;-76
2021/04/01 02:39:38;;;;;;;217.90;98.40;;;7.70;99.90;;;;;;5011636;28;20109;-78
2021/04/01 02:42:04;;;;;;;219.20;101.55;;;7.70;99.90;;;;;;5011959;28;20065;-79
2021/04/01 02:44:30;;;;;;;223.02;101.70;;;7.70;99.90;;;;;;5011089;28;20371;-78
2021/04/01 02:46:55;;;;;;;219.55;96.82;;;7.60;99.90;;;;;;5011710;28;20087;-78
2021/04/01 02:49:21;;;;;;;213.15;92.18;;;7.60;99.90;;;;;;5010238;28;20091;-78
2021/04/01 02:51:46;;;;;;;213.57;95.00;;;7.60;99.90;;;;;;5011656;28;20026;-78
2021/04/01 02:54:12;;;;;;;196.70;86.03;;;7.60;99.90;;;;;;5009969;28;20385;-78
2021/04/01 02:56:37;;;;;;;199.57;83.25;;;7.50;99.90;;;;;;5011930;28;20034;-78
2021/04/01 02:59:03;;;;;;;160.10;77.90;;;7.50;99.90;;;;;;5011261;28;20026;-78
2021/04/01 03:01:29;;;;;;;169.15;77.15;;;7.50;99.90;;;;;;5011592;28;20029;-78
2021/04/01 03:03:55;;;;;;;167.07;75.20;;;7.40;99.90;;;;;;5010960;28;20025;-78
2021/04/01 03:06:21;;;;;;;164.70;72.85;;;7.40;99.90;;;;;;5010456;28;20061;-78
2021/04/01 03:08:47;;;;;;;149.82;67.80;;;7.40;99.90;;;;;;5009529;28;20505;-78
2021/04/01 03:11:13;;;;;;;148.63;66.45;;;7.40;99.90;;;;;;5012098;28;20447;-78
2021/04/01 03:13:38;;;;;;;132.77;61.42;;;7.40;99.90;;;;;;5011238;28;20080;-78
2021/04/01 03:16:04;;;;;;;136.68;61.65;;;7.40;99.90;;;;;;5011557;28;20072;-78
2021/04/01 03:18:30;;;;;;;126.75;58.72;;;7.40;99.90;;;;;;5009960;28;20057;-78
2021/04/01 03:20:55;;;;;;;128.88;58.28;;;7.40;99.90;;;;;;5011424;28;20113;-78
2021/04/01 03:23:21;;;;;;;125.28;56.90;;;7.30;99.90;;;;;;5011547;28;20046;-78
2021/04/01 03:25:47;;;;;;;126.53;56.78;;;7.30;99.90;;;;;;5009644;28;20117;-78
2021/04/01 03:28:13;;;;;;;132.55;58.35;;;7.40;99.90;;;;;;5010837;28;20052;-78
2021/04/01 03:30:48;;;;;;;111.80;51.65;;;7.30;99.90;;;;;;5011610;28;20022;-78
2021/04/01 03:33:13;;;;;;;115.93;55.80;;;7.30;99.90;;;;;;5009368;28;20114;-78
2021/04/01 03:35:39;;;;;;;120.00;50.00;;;7.30;99.90;;;;;;5012864;28;20105;-78
2021/04/01 03:38:06;;;;;;;113.47;50.83;;;7.30;99.90;;;;;;5015230;28;20034;-78
2021/04/01 03:40:31;;;;;;;104.00;45.38;;;7.30;99.90;;;;;;5015363;28;20022;-78
2021/04/01 03:42:57;;;;;;;99.40;46.22;;;7.30;99.90;;;;;;5015185;28;20033;-78
2021/04/01 03:45:23;;;;;;;99.65;44.25;;;7.30;99.90;;;;;;5014263;28;20145;-78
2021/04/01 03:47:49;;;;;;;97.90;45.00;;;7.20;99.90;;;;;;5012494;28;20038;-78
2021/04/01 03:50:15;;;;;;;104.13;43.42;;;7.20;99.90;;;;;;5015084;28;20018;-78
2021/04/01 03:52:41;;;;;;;102.38;46.15;;;7.10;99.90;;;;;;5015047;28;20096;-78
2021/04/01 03:57:47;;;;;;;95.35;45.22;;;7.10;99.90;;;;;;5015186;28;20030;-78
2021/04/01 04:02:47;;;;;;;101.80;46.78;;;7.10;99.90;;;;;;5014887;28;20026;-78
2021/04/01 04:05:18;;;;;;;95.70;43.63;;;7.10;99.90;;;;;;5012993;28;20028;-78
2021/04/01 04:08:55;;;;;;;84.85;40.45;;;7.10;99.90;;;;;;5014612;28;20414;-78
2021/04/01 04:13:27;;;;;;;81.65;39.38;;;7.10;99.90;;;;;;5014404;28;20041;-78
2021/04/01 04:15:53;;;;;;;91.18;38.03;;;7.10;99.90;;;;;;5013991;28;20108;-78
2021/04/01 04:18:19;;;;;;;93.95;41.65;;;7.10;99.90;;;;;;5012797;28;20642;-78
2021/04/01 04:20:45;;;;;;;94.55;41.40;;;7.10;99.90;;;;;;5014535;28;20029;-78
2021/04/01 04:23:13;;;;;;;91.25;41.05;;;7.00;99.90;;;;;;5014066;28;20034;-78
2021/04/01 04:25:39;;;;;;;90.90;40.72;;;7.00;99.90;;;;;;5013862;28;20021;-78
2021/04/01 04:30:49;;;;;;;84.60;38.22;;;6.90;99.90;;;;;;5014410;28;20029;-78
2021/04/01 04:33:14;;;;;;;85.07;35.58;;;6.90;99.90;;;;;;5013966;28;20026;-78
2021/04/01 04:35:40;;;;;;;83.65;36.05;;;6.90;99.90;;;;;;5013547;28;20391;-78
2021/04/01 04:38:05;;;;;;;92.72;35.83;;;6.90;99.90;;;;;;5014040;28;20030;-78
2021/04/01 04:40:32;;;;;;;74.40;33.13;;;6.90;99.90;;;;;;5014256;28;20036;-78
2021/04/01 04:42:58;;;;;;;76.05;30.02;;;6.80;99.90;;;;;;5012638;28;20026;-78
2021/04/01 04:45:23;;;;;;;73.40;30.75;;;6.80;99.90;;;;;;5013470;28;20056;-78
2021/04/01 04:47:49;;;;;;;74.05;30.88;;;6.80;99.90;;;;;;5012212;28;20034;-78
2021/04/01 04:50:15;;;;;;;85.32;28.00;;;6.80;99.90;;;;;;5013860;28;20080;-78
2021/04/01 04:52:41;;;;;;;65.38;25.60;;;6.90;99.90;;;;;;5011938;28;20032;-78
2021/04/01 04:55:09;;;;;;;55.50;21.33;;;6.90;99.90;;;;;;5012958;28;20026;-78
2021/04/01 05:05:25;;;;;;;58.67;20.10;;;6.90;99.90;;;;;;5013102;28;20121;-78
2021/04/01 05:07:51;;;;;;;55.33;21.65;;;6.90;99.90;;;;;;5013464;28;20100;-78
2021/04/01 05:10:17;;;;;;;51.47;18.30;;;6.90;99.90;;;;;;5013571;28;20021;-78
2021/04/01 05:12:45;;;;;;;55.97;16.77;;;6.90;99.90;;;;;;5011622;28;20060;-78
2021/04/01 05:15:10;;;;;;;47.25;15.43;;;6.90;99.90;;;;;;5012811;28;20022;-78
2021/04/01 05:17:36;;;;;;;42.63;15.57;;;6.90;99.90;;;;;;5013226;28;20075;-78
2021/04/01 05:20:05;;;;;;;55.83;14.60;;;6.90;99.90;;;;;;5012110;28;20396;-78
2021/04/01 05:22:51;;;;;;;35.95;11.43;;;6.90;99.90;;;;;;5013089;28;20033;-77
2021/04/01 05:25:16;;;;;;;39.70;10.07;;;6.90;99.90;;;;;;5012806;28;20104;-78
2021/04/01 05:27:53;;;;;;;47.83;9.55;;;6.90;99.90;;;;;;5013183;28;20161;-78
2021/04/01 05:30:20;;;;;;;36.58;8.43;;;7.00;99.90;;;;;;5013361;28;20455;-78
2021/04/01 05:32:45;;;;;;;33.00;6.97;;;7.00;99.90;;;;;;5012994;28;20474;-78
2021/04/01 05:35:14;;;;;;;31.92;6.32;;;7.10;99.90;;;;;;5012512;28;20033;-78
2021/04/01 05:37:40;;;;;;;28.33;6.43;;;7.10;99.90;;;;;;5013038;28;20108;-78
2021/04/01 05:40:09;;;;;;;33.03;7.78;;;7.20;99.90;;;;;;5013049;28;20145;-77
2021/04/01 05:42:43;;;;;;;30.77;6.38;;;7.20;99.90;;;;;;5011485;28;20044;-77
2021/04/01 05:48:18;;;;;;;26.02;6.72;;;7.20;99.90;;;;;;4971026;28;20154;-77
2021/04/01 06:04:33;;;;;;;29.35;6.60;;;7.50;99.90;;;;;;5012360;28;20037;-78
2021/04/01 06:07:12;;;;;;;28.92;7.22;;;7.50;99.90;;;;;;5012613;28;20022;-78
2021/04/01 06:09:45;;;;;;;26.83;8.50;;;7.50;99.90;;;;;;5012387;28;20052;-78
2021/04/01 06:12:11;;;;;;;31.15;8.98;;;7.50;99.90;;;;;;5010566;28;20033;-78
2021/04/01 06:14:52;;;;;;;38.10;8.57;;;7.50;99.90;;;;;;5010442;28;20474;-77
2021/04/01 06:17:19;;;;;;;33.28;8.90;;;7.50;99.90;;;;;;5010408;28;20052;-77
2021/04/01 06:19:48;;;;;;;33.40;7.82;;;7.60;99.90;;;;;;5012192;28;20083;-78
2021/04/01 06:22:14;;;;;;;29.98;8.77;;;7.60;99.90;;;;;;5010730;28;20447;-77
2021/04/01 06:24:44;;;;;;;21.73;7.30;;;7.60;99.90;;;;;;5011652;28;20433;-77
2021/04/01 06:27:25;;;;;;;33.92;8.18;;;7.60;99.90;;;;;;5012170;28;20057;-77
2021/04/01 06:30:21;;;;;;;12.10;6.25;;;7.50;99.90;;;;;;5010930;28;20442;-77
2021/04/01 06:33:04;;;;;;;21.25;6.43;;;7.60;99.90;;;;;;5010160;28;20498;-77
2021/04/01 06:35:36;;;;;;;19.73;6.40;;;7.60;99.90;;;;;;5011526;28;20049;-77
2021/04/01 06:40:45;;;;;;;16.85;7.85;;;7.50;99.90;;;;;;5012227;28;20113;-78
2021/04/01 06:43:17;;;;;;;24.10;7.03;;;7.50;99.90;;;;;;5011726;28;20033;-77
2021/04/01 06:46:07;;;;;;;11.65;5.93;;;7.50;99.90;;;;;;5011361;28;20029;-77
2021/04/01 06:48:58;;;;;;;17.25;6.28;;;7.60;99.90;;;;;;5011391;28;20037;-77
2021/04/01 06:51:38;;;;;;;15.85;6.53;;;7.60;99.90;;;;;;5011820;28;20470;-77
2021/04/01 06:57:04;;;;;;;10.20;5.00;;;7.60;99.90;;;;;;5012097;28;20026;-77
2021/04/01 06:59:51;;;;;;;9.45;5.47;;;7.60;99.90;;;;;;5011296;28;20040;-77
2021/04/01 07:02:30;;;;;;;9.15;4.75;;;7.60;99.90;;;;;;5009626;28;20050;-77
2021/04/01 07:05:07;;;;;;;11.95;4.95;;;7.70;99.90;;;;;;5009571;28;20026;-78
2021/04/01 07:07:47;;;;;;;14.70;5.15;;;7.60;99.90;;;;;;5011398;28;20029;-77
2021/04/01 07:10:35;;;;;;;13.27;5.00;;;7.60;99.90;;;;;;5012956;28;20034;-77
2021/04/01 07:13:03;;;;;;;19.48;5.70;;;7.60;99.90;;;;;;5015397;28;20036;-77
2021/04/01 07:15:32;;;;;;;14.68;5.35;;;7.60;99.90;;;;;;5013661;28;20029;-77
2021/04/01 07:18:22;;;;;;;10.48;5.55;;;7.60;99.90;;;;;;5013880;28;20457;-77
2021/04/01 07:21:17;;;;;;;10.52;4.93;;;7.60;99.90;;;;;;5015796;28;20061;-76
2021/04/01 07:46:05;;;;;;;7.78;3.63;;;7.50;99.90;;;;;;5014171;28;20057;-77
2021/04/01 07:48:24;;;;;;;10.95;4.40;;;7.50;99.90;;;;;;5014395;28;20492;-78
2021/04/01 07:50:50;;;;;;;7.55;3.42;;;7.50;99.90;;;;;;5013592;28;20462;-78
2021/04/01 07:53:23;;;;;;;8.48;3.88;;;7.50;99.90;;;;;;5014874;28;20022;-78
2021/04/01 07:56:21;;;;;;;7.03;4.20;;;7.50;99.90;;;;;;5012745;28;20483;-77
2021/04/01 08:01:47;;;;;;;7.00;3.45;;;7.50;99.90;;;;;;5014942;28;20475;-76
2021/04/01 08:04:15;;;;;;;7.07;3.22;;;7.50;99.90;;;;;;5012822;28;20026;-77
2021/04/01 08:06:42;;;;;;;5.50;2.97;;;7.50;99.90;;;;;;5013753;28;20673;-77
2021/04/01 08:09:11;;;;;;;7.82;3.30;;;7.60;99.90;;;;;;5010868;28;20034;-77
2021/04/01 08:11:45;;;;;;;3.47;2.85;;;7.70;99.90;;;;;;5011163;28;20029;-78
2021/04/01 08:14:20;;;;;;;5.70;3.13;;;7.70;99.90;;;;;;5010043;28;20022;-77
2021/04/01 08:17:01;;;;;;;3.92;3.22;;;7.80;99.90;;;;;;5002567;28;20033;-77
2021/04/01 08:19:29;;;;;;;2.95;2.50;;;7.90;99.90;;;;;;5010150;28;20437;-77
2021/04/01 08:21:57;;;;;;;8.80;2.90;;;7.90;99.90;;;;;;5014047;28;20100;-78
2021/04/01 08:24:44;;;;;;;5.18;2.85;;;8.00;99.90;;;;;;5012541;28;20049;-77
2021/04/01 08:27:25;;;;;;;4.40;2.55;;;8.00;99.90;;;;;;5012912;28;20044;-77
2021/04/01 08:33:03;;;;;;;5.88;2.90;;;8.00;99.90;;;;;;5014023;28;20025;-78
2021/04/01 08:35:29;;;;;;;2.83;2.53;;;8.20;99.90;;;;;;5012284;28;20099;-77
2021/04/01 08:38:09;;;;;;;4.97;2.85;;;8.40;99.90;;;;;;5013870;28;20038;-77
2021/04/01 08:40:35;;;;;;;4.05;3.08;;;8.70;99.90;;;;;;5014102;28;20022;-78
2021/04/01 08:43:35;;;;;;;3.90;3.28;;;8.50;99.90;;;;;;5014060;28;20029;-78
2021/04/01 08:46:15;;;;;;;6.28;3.25;;;8.50;99.90;;;;;;5013545;28;20022;-77
2021/04/01 08:49:02;;;;;;;7.22;3.50;;;8.50;99.90;;;;;;5013421;28;20041;-78
2021/04/01 08:51:54;;;;;;;4.75;3.42;;;8.50;99.90;;;;;;5013939;28;20390;-78
2021/04/01 08:54:40;;;;;;;5.78;3.35;;;8.50;99.90;;;;;;5011909;28;20033;-78
2021/04/01 08:57:12;;;;;;;6.40;4.38;;;8.60;99.90;;;;;;5011917;28;20030;-78
2021/04/01 08:59:55;;;;;;;9.18;4.38;;;8.70;99.90;;;;;;5013373;28;20466;-78
2021/04/01 09:02:23;;;;;;;8.80;3.75;;;8.80;99.90;;;;;;5013287;28;20034;-77
2021/04/01 09:04:51;;;;;;;7.68;3.88;;;8.90;99.90;;;;;;5011824;28;20179;-78
2021/04/01 09:07:27;;;;;;;9.82;3.97;;;8.90;99.90;;;;;;5012990;28;20025;-78
2021/04/01 09:09:59;;;;;;;7.07;4.15;;;8.80;99.90;;;;;;5012456;28;20026;-78
2021/04/01 09:12:31;;;;;;;11.27;4.70;;;8.80;99.90;;;;;;5013503;28;20053;-78
2021/04/01 09:15:03;;;;;;;7.28;4.47;;;8.80;99.90;;;;;;5012901;28;20038;-78
2021/04/01 09:17:31;;;;;;;27.70;5.80;;;8.70;99.90;;;;;;5011346;28;20048;-78
2021/04/01 09:19:57;;;;;;;14.23;6.05;;;8.70;99.90;;;;;;5013293;28;20030;-78
2021/04/01 09:22:26;;;;;;;9.18;4.90;;;8.60;99.90;;;;;;5013397;28;20389;-78
2021/04/01 09:25:00;;;;;;;11.45;5.45;;;8.70;99.90;;;;;;5011430;28;20442;-78
2021/04/01 09:27:26;;;;;;;5.05;2.90;;;8.70;99.90;;;;;;5012549;28;20042;-78
2021/04/01 09:30:08;;;;;;;3.63;2.92;;;8.60;99.90;;;;;;5013269;28;20034;-78
2021/04/01 09:32:36;;;;;;;5.22;3.28;;;8.60;99.90;;;;;;5010579;28;20061;-78
2021/04/01 09:35:04;;;;;;;5.75;3.40;;;8.70;99.90;;;;;;5012553;28;20034;-78
2021/04/01 09:37:30;;;;;;;4.32;3.33;;;9.00;99.90;;;;;;5010988;28;20680;-78
2021/04/01 09:40:07;;;;;;;3.50;3.00;;;9.00;99.90;;;;;;5013016;28;20026;-78
2021/04/01 09:42:42;;;;;;;5.72;3.05;;;8.90;99.90;;;;;;5011769;28;20128;-78
2021/04/01 09:45:09;;;;;;;3.63;3.10;;;8.70;99.90;;;;;;5012158;28;20079;-78
2021/04/01 09:47:39;;;;;;;5.93;2.75;;;8.60;99.90;;;;;;5010653;28;20058;-78
2021/04/01 09:50:07;;;;;;;4.18;2.95;;;8.40;99.90;;;;;;5011492;28;20414;-79
2021/04/01 09:52:34;;;;;;;4.75;2.85;;;8.30;99.90;;;;;;5011697;28;20148;-78
2021/04/01 09:55:05;;;;;;;5.18;3.47;;;8.30;99.90;;;;;;5012063;28;20093;-78
2021/04/01 09:57:42;;;;;;;5.97;3.15;;;8.20;99.90;;;;;;5010384;28;20033;-78
2021/04/01 10:00:28;;;;;;;4.18;2.80;;;8.00;99.90;;;;;;5012760;28;20021;-78
2021/04/01 10:03:04;;;;;;;5.60;2.80;;;8.20;99.90;;;;;;5011002;28;20124;-78
2021/04/01 10:05:39;;;;;;;5.35;2.30;;;8.20;99.90;;;;;;5012097;28;20022;-77
2021/04/01 10:08:08;;;;;;;3.83;2.13;;;8.30;99.90;;;;;;5012103;28;20037;-78
2021/04/01 10:10:36;;;;;;;11.63;1.50;;;8.50;99.90;;;;;;5010866;28;20080;-78
2021/04/01 10:13:02;;;;;;;2.15;1.30;;;8.60;99.90;;;;;;5012340;28;20022;-78
2021/04/01 10:15:29;;;;;;;4.45;1.60;;;8.80;99.90;;;;;;5010497;28;20077;-78
2021/04/01 10:17:56;;;;;;;3.25;1.25;;;8.70;99.90;;;;;;5011888;28;20486;-78
2021/04/01 10:20:22;;;;;;;5.57;1.02;;;8.80;99.90;;;;;;5012302;28;20087;-78
2021/04/01 10:22:48;;;;;;;1.58;1.05;;;8.90;99.90;;;;;;5012315;28;20101;-79
2021/04/01 10:25:22;;;;;;;4.45;1.00;;;9.00;99.90;;;;;;5010370;28;20022;-77
2021/04/01 10:28:09;;;;;;;3.03;1.15;;;9.20;99.90;;;;;;5010402;28;20053;-78
2021/04/01 10:30:36;;;;;;;4.28;1.35;;;9.30;99.90;;;;;;5012350;28;20057;-78
2021/04/01 10:33:22;;;;;;;4.07;1.40;;;9.30;99.90;;;;;;5011322;28;20041;-78
2021/04/01 10:35:48;;;;;;;2.85;1.65;;;9.30;99.90;;;;;;5010138;28;20032;-78
2021/04/01 10:38:17;;;;;;;2.95;1.45;;;9.30;99.90;;;;;;5011772;28;20064;-77
2021/04/01 10:40:48;;;;;;;7.45;2.80;;;9.10;99.90;;;;;;5010939;28;20026;-78
2021/04/01 10:43:18;;;;;;;5.82;2.17;;;9.20;99.90;;;;;;5011839;28;20506;-78
2021/04/01 10:45:44;;;;;;;4.50;1.52;;;9.30;99.90;;;;;;5010140;28;20513;-78
2021/04/01 10:48:21;;;;;;;10.93;3.05;;;9.30;99.90;;;;;;5011492;28;20033;-78
2021/04/01 10:50:50;;;;;;;5.93;2.33;;;9.30;99.90;;;;;;5011008;28;20116;-78
2021/04/01 10:53:22;;;;;;;7.40;2.38;;;9.30;99.90;;;;;;5011781;28;20373;-78
2021/04/01 10:55:50;;;;;;;8.18;2.63;;;9.30;99.90;;;;;;5011182;28;20030;-78
2021/04/01 10:58:16;;;;;;;5.68;1.55;;;9.40;99.90;;;;;;5011152;28;20387;-78
2021/04/01 11:00:57;;;;;;;1.80;1.15;;;9.30;99.90;;;;;;5011719;28;20029;-79
2021/04/01 11:03:25;;;;;;;2.63;1.23;;;9.50;99.90;;;;;;5010118;28;20030;-78
2021/04/01 11:05:51;;;;;;;2.60;1.38;;;9.90;99.90;;;;;;5011088;28;20030;-79
2021/04/01 11:08:18;;;;;;;3.47;1.73;;;10.50;99.90;;;;;;5011213;28;20389;-79
2021/04/01 11:10:45;;;;;;;5.40;1.70;;;10.90;99.90;;;;;;5010025;28;20022;-78
2021/04/01 11:13:12;;;;;;;4.25;1.15;;;11.10;99.90;;;;;;5010408;28;20029;-79
2021/04/01 11:15:40;;;;;;;6.30;1.58;;;11.10;99.90;;;;;;5010945;28;20025;-79
2021/04/01 11:18:19;;;;;;;4.85;1.67;;;10.80;99.90;;;;;;5009550;28;20026;-79
2021/04/01 11:20:50;;;;;;;4.10;1.20;;;10.60;99.90;;;;;;5010283;28;20537;-79
2021/04/01 11:23:19;;;;;;;6.13;1.77;;;11.00;99.90;;;;;;5011565;28;20041;-76
2021/04/01 11:25:50;;;;;;;6.80;1.50;;;11.30;99.90;;;;;;5010952;28;20105;-78
2021/04/01 11:28:16;;;;;;;6.60;1.77;;;10.80;99.90;;;;;;5009558;28;20046;-75
2021/04/01 11:30:51;;;;;;;7.15;2.58;;;10.60;99.90;;;;;;5011261;28;20039;-78
2021/04/01 11:33:18;;;;;;;8.07;2.13;;;10.60;99.90;;;;;;5009919;28;20069;-77
2021/04/01 11:35:47;;;;;;;4.70;2.00;;;10.60;99.90;;;;;;5010837;28;20022;-78
2021/04/01 11:38:21;;;;;;;7.68;2.58;;;10.50;99.90;;;;;;5010986;28;20111;-78
2021/04/01 11:41:01;;;;;;;5.22;2.35;;;10.30;99.90;;;;;;5009872;28;20033;-78
2021/04/01 11:43:30;;;;;;;6.43;2.70;;;10.40;99.90;;;;;;5010089;28;20037;-78
2021/04/01 11:45:56;;;;;;;8.00;3.13;;;10.50;99.90;;;;;;5010736;28;20363;-78
2021/04/01 11:48:22;;;;;;;6.22;2.80;;;10.40;99.90;;;;;;5010694;28;20114;-78
2021/04/01 11:50:49;;;;;;;5.88;1.77;;;10.50;99.90;;;;;;5011323;28;20105;-78
2021/04/01 11:53:15;;;;;;;5.15;1.30;;;10.90;99.90;;;;;;5011305;28;20034;-78
2021/04/01 11:55:52;;;;;;;3.70;1.58;;;10.80;99.90;;;;;;5011122;28;20113;-78
2021/04/01 11:58:19;;;;;;;4.15;1.20;;;11.00;99.90;;;;;;5012752;28;20106;-78
2021/04/01 12:00:46;;;;;;;1.85;0.88;;;11.40;99.90;;;;;;5014942;28;20025;-78
2021/04/01 12:03:22;;;;;;;2.20;1.02;;;11.80;99.90;;;;;;5014662;28;20057;-76
2021/04/01 12:05:49;;;;;;;2.15;1.00;;;11.70;99.90;;;;;;5012921;28;20113;-76
2021/04/01 12:08:15;;;;;;;3.00;1.48;;;11.70;99.90;;;;;;5012938;28;20133;-74
2021/04/01 12:10:41;;;;;;;4.88;1.58;;;12.70;99.90;;;;;;5014799;28;20026;-75
2021/04/01 12:13:07;;;;;;;3.30;1.27;;;12.90;99.90;;;;;;5013435;28;20033;-75
2021/04/01 12:15:40;;;;;;;4.18;1.25;;;12.40;99.90;;;;;;5014039;28;20449;-75
2021/04/01 12:18:08;;;;;;;2.80;1.10;;;12.20;99.90;;;;;;5012383;28;20026;-74
2021/04/01 12:20:35;;;;;;;2.08;0.88;;;12.00;99.90;;;;;;5012912;28;20058;-78
2021/04/01 12:23:15;;;;;;;2.75;1.20;;;11.60;99.90;;;;;;5013327;28;20367;-75
2021/04/01 12:25:42;;;;;;;1.75;1.02;;;11.30;99.90;;;;;;5013937;28;20022;-76
2021/04/01 12:28:16;;;;;;;4.78;1.20;;;11.30;99.90;;;;;;5013912;28;20022;-75
2021/04/01 12:30:47;;;;;;;4.72;1.23;;;11.10;99.90;;;;;;5013962;28;20156;-74
2021/04/01 12:33:19;;;;;;;2.45;1.40;;;11.10;99.90;;;;;;5013652;28;20079;-75
2021/04/01 12:36:04;;;;;;;8.48;1.77;;;11.20;99.90;;;;;;5009914;28;20052;-77
2021/04/01 12:38:31;;;;;;;2.38;1.27;;;11.50;99.90;;;;;;5014063;28;20394;-76
2021/04/01 12:41:09;;;;;;;2.90;1.63;;;11.40;99.90;;;;;;5014055;28;20364;-76
2021/04/01 12:43:40;;;;;;;3.97;1.60;;;11.40;99.90;;;;;;5012829;28;20498;-76
2021/04/01 12:46:06;;;;;;;11.35;1.90;;;11.50;99.90;;;;;;5012593;28;20037;-75
2021/04/01 12:48:43;;;;;;;2.38;1.50;;;11.30;99.90;;;;;;5013452;28;20033;-76
2021/04/01 12:51:10;;;;;;;4.57;1.35;;;11.50;99.90;;;;;;4994348;28;20495;-76
2021/04/01 12:53:37;;;;;;;3.63;1.83;;;11.70;99.90;;;;;;4998623;28;20025;-77
2021/04/01 12:56:18;;;;;;;8.23;1.48;;;11.90;99.90;;;;;;5013462;28;20379;-78
2021/04/01 12:58:54;;;;;;;4.30;1.27;;;11.90;99.90;;;;;;5013774;28;20022;-75
2021/04/01 13:01:29;;;;;;;2.95;1.10;;;11.50;99.90;;;;;;5012086;28;20168;-76
2021/04/01 13:03:56;;;;;;;2.42;1.25;;;11.50;99.90;;;;;;5012778;28;20061;-76
2021/04/01 13:06:39;;;;;;;1.75;0.90;;;11.70;99.90;;;;;;5013770;28;20103;-76
2021/04/01 13:09:25;;;;;;;2.17;1.30;;;11.90;99.90;;;;;;5011150;28;20057;-76
2021/04/01 13:11:54;;;;;;;2.88;1.27;;;12.00;99.90;;;;;;4993860;28;20031;-76
2021/04/01 13:14:22;;;;;;;2.90;1.23;;;12.60;99.90;;;;;;5016137;28;20025;-76
2021/04/01 13:16:47;;;;;;;1.92;0.70;;;13.90;99.90;;;;;;5013613;28;20017;-76
2021/04/01 13:19:13;;;;;;;2.67;1.40;;;14.00;99.90;;;;;;5011713;28;20030;-77
2021/04/01 13:24:26;;;;;;;2.30;0.82;;;14.10;99.90;;;;;;5012890;28;20034;-77
2021/04/01 13:26:52;;;;;;;7.72;1.00;;;14.10;99.90;;;;;;5013008;28;20025;-76
2021/04/01 13:29:20;;;;;;;3.05;1.05;;;13.80;99.90;;;;;;5012850;28;20034;-78
2021/04/01 13:32:06;;;;;;;2.78;1.15;;;13.50;99.90;;;;;;5012984;28;20513;-77
2021/04/01 13:34:40;;;;;;;2.63;0.98;;;13.20;99.90;;;;;;5011939;28;20363;-77
2021/04/01 13:37:11;;;;;;;4.22;1.38;;;12.80;99.90;;;;;;5013122;28;20052;-78
2021/04/01 13:39:40;;;;;;;9.02;2.03;;;12.70;99.90;;;;;;5012541;28;20389;-77
2021/04/01 13:47:05;;;;;;;8.02;2.08;;;12.10;99.90;;;;;;5006395;28;20153;-77
2021/04/01 13:49:32;;;;;;;5.45;1.50;;;11.80;99.90;;;;;;5008270;28;20061;-76
2021/04/01 13:52:43;;;;;;;1.65;1.20;;;11.60;99.90;;;;;;5008821;28;20479;-76
2021/04/01 13:54:51;;;;;;;2.17;1.10;;;11.60;99.90;;;;;;4998449;28;20115;-75
2021/04/01 14:10:59;;;;;;;2.28;1.00;;;14.50;99.90;;;;;;5007792;28;20160;-76
2021/04/01 14:13:27;;;;;;;2.58;1.33;;;13.90;99.90;;;;;;5008334;28;20042;-76
2021/04/01 14:15:53;;;;;;;3.70;0.98;;;13.20;99.90;;;;;;5007555;28;20040;-76
2021/04/01 14:18:19;;;;;;;3.53;1.23;;;12.60;99.90;;;;;;5007988;28;20484;-76
2021/04/01 14:20:45;;;;;;;2.33;1.10;;;12.50;99.90;;;;;;5008285;28;20049;-76
2021/04/01 14:23:17;;;;;;;6.22;1.02;;;12.20;99.90;;;;;;5008937;28;20401;-77
2021/04/01 14:25:44;;;;;;;4.72;1.60;;;12.00;99.90;;;;;;5010488;28;20034;-77
2021/04/01 14:28:11;;;;;;;6.43;1.70;;;11.90;99.90;;;;;;5012085;28;20022;-76